createdAt,value
2022-09-03T00:00:19.442Z,101241.19
2022-09-03T00:03:23.711Z,101240.13
2022-09-03T00:06:11.818Z,101236.38
2022-09-03T00:08:49.698Z,101235.33
2022-09-03T00:11:29.596Z,101233.80
2022-09-03T00:14:06.202Z,101234.69
2022-09-03T00:16:51.194Z,101228.09
2022-09-03T00:19:27.124Z,101227.61
2022-09-03T00:22:01.762Z,101228.49
2022-09-03T00:24:40.497Z,101230.55
2022-09-03T00:27:17.575Z,101228.85
2022-09-03T00:29:54.566Z,101229.64
2022-09-03T00:32:31.573Z,101224.39
2022-09-03T00:35:07.792Z,101221.64
2022-09-03T00:37:40.462Z,101223.90
2022-09-03T00:40:26.132Z,101223.24
2022-09-03T00:43:10.516Z,101224.50
2022-09-03T00:45:51.923Z,101220.92
2022-09-03T00:48:28.644Z,101221.33
2022-09-03T00:51:17.484Z,101216.16
2022-09-03T00:53:59.575Z,101215.81
2022-09-03T00:56:39.743Z,101214.19
2022-09-03T00:59:24.215Z,101218.86
2022-09-03T01:02:07.542Z,101221.75
2022-09-03T01:04:54.275Z,101215.31
2022-09-03T01:07:38.113Z,101213.59
2022-09-03T01:10:29.479Z,101216.19
2022-09-03T01:13:06.577Z,101212.34
2022-09-03T01:15:46.533Z,101216.44
2022-09-03T01:18:26.951Z,101215.50
2022-09-03T01:21:25.994Z,101211.60
2022-09-03T01:24:17.889Z,101213.09
2022-09-03T01:27:06.987Z,101210.77
2022-09-03T01:29:46.639Z,101213.79
2022-09-03T01:32:30.695Z,101211.40
2022-09-03T01:35:11.918Z,101215.79
2022-09-03T01:38:02.933Z,101213.55
2022-09-03T01:40:44.264Z,101212.59
2022-09-03T01:43:40.021Z,101210.37
2022-09-03T01:46:21.182Z,101210.82
2022-09-03T01:49:03.785Z,101213.48
2022-09-03T01:51:35.868Z,101210.98
2022-09-03T01:54:38.424Z,101213.61
2022-09-03T01:57:35.183Z,101208.86
2022-09-03T02:00:20.218Z,101209.92
2022-09-03T02:02:54.072Z,101206.31
2022-09-03T02:05:28.353Z,101197.80
2022-09-03T02:08:02.808Z,101199.28
2022-09-03T02:10:44.119Z,101198.16
2022-09-03T02:13:19.769Z,101196.50
2022-09-03T02:15:54.526Z,101199.80
2022-09-03T02:18:31.344Z,101199.77
2022-09-03T02:21:06.074Z,101199.42
2022-09-03T02:23:40.020Z,101200.64
2022-09-03T02:26:13.872Z,101200.16
2022-09-03T02:28:46.188Z,101196.02
2022-09-03T02:31:19.909Z,101197.02
2022-09-03T02:33:52.992Z,101200.96
2022-09-03T02:36:30.976Z,101194.79
2022-09-03T02:39:02.949Z,101193.77
2022-09-03T02:41:37.143Z,101193.11
2022-09-03T02:44:14.059Z,101187.02
2022-09-03T02:46:50.144Z,101187.56
2022-09-03T02:49:22.070Z,101190.02
2022-09-03T02:52:00.853Z,101187.54
2022-09-03T02:54:33.557Z,101190.11
2022-09-03T02:57:05.556Z,101196.27
2022-09-03T02:59:38.117Z,101193.16
2022-09-03T03:02:11.548Z,101190.66
2022-09-03T03:04:43.521Z,101193.92
2022-09-03T03:07:15.419Z,101196.14
2022-09-03T03:09:47.301Z,101198.55
2022-09-03T03:12:21.699Z,101192.80
2022-09-03T03:14:53.505Z,101192.65
2022-09-03T03:17:26.369Z,101195.21
2022-09-03T03:19:58.305Z,101195.48
2022-09-03T03:22:34.212Z,101193.96
2022-09-03T03:25:06.659Z,101195.63
2022-09-03T03:27:44.208Z,101196.34
2022-09-03T03:30:19.267Z,101195.31
2022-09-03T03:32:54.482Z,101195.66
2022-09-03T03:35:26.561Z,101192.92
2022-09-03T03:38:00.479Z,101197.62
2022-09-03T03:40:32.626Z,101199.19
2022-09-03T03:43:06.288Z,101196.48
2022-09-03T03:45:38.198Z,101198.42
2022-09-03T03:48:11.033Z,101197.63
2022-09-03T03:50:42.914Z,101203.08
2022-09-03T03:53:16.445Z,101205.42
2022-09-03T03:55:57.483Z,101206.41
2022-09-03T03:58:29.966Z,101203.64
2022-09-03T04:01:08.769Z,101203.91
2022-09-03T04:03:41.110Z,101200.13
2022-09-03T04:06:14.725Z,101201.81
2022-09-03T04:08:49.630Z,101202.30
2022-09-03T04:11:23.567Z,101204.73
2022-09-03T04:13:56.556Z,101202.05
2022-09-03T04:16:29.973Z,101204.46
2022-09-03T04:19:02.095Z,101206.92
2022-09-03T04:21:34.352Z,101208.17
2022-09-03T04:24:07.440Z,101210.64
2022-09-03T04:26:40.766Z,101210.36
2022-09-03T04:29:13.150Z,101207.54
2022-09-03T04:32:05.214Z,101212.02
2022-09-03T04:34:38.769Z,101214.54
2022-09-03T04:37:10.890Z,101213.77
2022-09-03T04:39:42.814Z,101209.77
2022-09-03T04:42:14.836Z,101211.44
2022-09-03T04:44:46.899Z,101207.29
2022-09-03T04:47:18.888Z,101208.86
2022-09-03T04:49:50.815Z,101203.52
2022-09-03T04:52:23.078Z,101204.05
2022-09-03T04:54:55.149Z,101208.82
2022-09-03T04:57:34.431Z,101207.38
2022-09-03T05:00:18.118Z,101209.86
2022-09-03T05:02:52.029Z,101210.77
2022-09-03T05:05:23.978Z,101208.86
2022-09-03T05:07:58.993Z,101210.56
2022-09-03T05:10:38.118Z,101212.24
2022-09-03T05:13:09.954Z,101213.13
2022-09-03T05:15:44.388Z,101217.03
2022-09-03T05:18:16.296Z,101219.66
2022-09-03T05:20:51.579Z,101221.20
2022-09-03T05:23:23.403Z,101219.54
2022-09-03T05:25:59.780Z,101218.16
2022-09-03T05:28:32.957Z,101220.05
2022-09-03T05:31:08.824Z,101222.99
2022-09-03T05:33:42.274Z,101223.95
2022-09-03T05:36:16.080Z,101226.23
2022-09-03T05:38:48.797Z,101229.84
2022-09-03T05:41:22.288Z,101226.61
2022-09-03T05:43:56.764Z,101229.33
2022-09-03T05:46:32.054Z,101224.98
2022-09-03T05:49:05.611Z,101230.80
2022-09-03T05:51:39.589Z,101228.62
2022-09-03T05:54:12.016Z,101231.21
2022-09-03T05:56:44.044Z,101230.02
2022-09-03T05:59:15.968Z,101231.65
2022-09-03T06:01:53.770Z,101228.77
2022-09-03T06:04:28.744Z,101226.15
2022-09-03T06:07:00.666Z,101227.64
2022-09-03T06:09:32.607Z,101227.21
2022-09-03T06:12:06.510Z,101234.58
2022-09-03T06:14:38.306Z,101234.19
2022-09-03T06:17:11.446Z,101232.73
2022-09-03T06:19:43.385Z,101231.84
2022-09-03T06:22:15.307Z,101231.99
2022-09-03T06:24:47.205Z,101231.95
2022-09-03T06:27:21.325Z,101230.25
2022-09-03T06:29:53.916Z,101232.73
2022-09-03T06:32:26.606Z,101230.38
2022-09-03T06:34:59.301Z,101231.55
2022-09-03T06:37:31.267Z,101233.15
2022-09-03T06:40:03.407Z,101236.76
2022-09-03T06:42:35.414Z,101238.52
2022-09-03T06:45:12.187Z,101240.41
2022-09-03T06:47:44.198Z,101236.23
2022-09-03T06:50:19.960Z,101237.46
2022-09-03T06:52:55.781Z,101239.02
2022-09-03T06:55:27.543Z,101239.13
2022-09-03T06:57:59.864Z,101244.23
2022-09-03T07:00:31.969Z,101245.48
2022-09-03T07:03:04.682Z,101245.16
2022-09-03T07:05:37.620Z,101247.88
2022-09-03T07:08:11.481Z,101246.98
2022-09-03T07:10:46.587Z,101248.27
2022-09-03T07:13:19.169Z,101244.67
2022-09-03T07:15:58.987Z,101247.86
2022-09-03T07:18:31.125Z,101244.46
2022-09-03T07:21:05.390Z,101242.11
2022-09-03T07:23:38.753Z,101242.04
2022-09-03T07:26:13.909Z,101239.40
2022-09-03T07:28:47.035Z,101238.66
2022-09-03T07:31:22.778Z,101237.02
2022-09-03T07:33:57.712Z,101234.95
2022-09-03T07:36:35.503Z,101236.43
2022-09-03T07:39:07.961Z,101234.95
2022-09-03T07:41:43.593Z,101237.13
2022-09-03T07:44:16.428Z,101237.17
2022-09-03T07:46:51.392Z,101246.16
2022-09-03T07:49:24.239Z,101248.86
2022-09-03T07:51:56.156Z,101250.95
2022-09-03T07:54:28.185Z,101250.88
2022-09-03T07:57:00.005Z,101248.28
2022-09-03T07:59:31.876Z,101248.17
2022-09-03T08:02:06.184Z,101248.38
2022-09-03T08:04:38.742Z,101249.09
2022-09-03T08:07:10.680Z,101252.89
2022-09-03T08:09:43.472Z,101250.98
2022-09-03T08:12:15.365Z,101249.55
2022-09-03T08:14:47.356Z,101245.84
2022-09-03T08:17:19.202Z,101243.67
2022-09-03T08:19:51.104Z,101247.35
2022-09-03T08:22:22.940Z,101244.85
2022-09-03T08:24:55.954Z,101243.27
2022-09-03T08:27:27.936Z,101241.27
2022-09-03T08:29:59.881Z,101243.36
2022-09-03T08:32:31.806Z,101241.70
2022-09-03T08:35:03.958Z,101236.88
2022-09-03T08:37:35.807Z,101234.82
2022-09-03T08:40:17.853Z,101237.83
2022-09-03T08:43:06.578Z,101238.70
2022-09-03T08:45:39.801Z,101235.95
2022-09-03T08:48:17.314Z,101237.83
2022-09-03T08:50:57.028Z,101236.52
2022-09-03T08:53:35.577Z,101235.83
2022-09-03T08:56:12.459Z,101232.76
2022-09-03T08:58:45.001Z,101236.02
2022-09-03T09:01:26.002Z,101234.51
2022-09-03T09:04:10.768Z,101231.15
2022-09-03T09:06:51.453Z,101229.15
2022-09-03T09:09:32.650Z,101229.36
2022-09-03T09:12:18.817Z,101226.79
2022-09-03T09:15:02.781Z,101222.11
2022-09-03T09:18:05.401Z,101220.00
2022-09-03T09:20:46.856Z,101217.42
2022-09-03T09:23:27.637Z,101213.70
2022-09-03T09:26:06.146Z,101211.86
2022-09-03T09:28:39.775Z,101211.34
2022-09-03T09:31:18.823Z,101210.48
2022-09-03T09:33:52.594Z,101203.30
2022-09-03T09:36:26.332Z,101200.43
2022-09-03T09:39:09.503Z,101204.82
2022-09-03T09:41:41.367Z,101210.27
2022-09-03T09:44:22.005Z,101210.25
2022-09-03T09:46:54.814Z,101210.34
2022-09-03T09:49:35.188Z,101210.03
2022-09-03T09:52:13.068Z,101201.75
2022-09-03T09:54:46.503Z,101197.44
2022-09-03T09:57:23.243Z,101189.16
2022-09-03T10:00:12.134Z,101198.70
2022-09-03T10:02:51.999Z,101191.41
2022-09-03T10:05:26.571Z,101183.53
2022-09-03T10:08:00.105Z,101190.30
2022-09-03T10:10:41.219Z,101192.73
2022-09-03T10:13:19.513Z,101192.77
2022-09-03T10:15:56.286Z,101193.23
2022-09-03T10:18:39.987Z,101189.05
2022-09-03T10:21:19.657Z,101188.57
2022-09-03T10:23:58.500Z,101183.38
2022-09-03T10:26:32.193Z,101189.92
2022-09-03T10:29:08.908Z,101190.46
2022-09-03T10:31:58.016Z,101182.77
2022-09-03T10:34:37.204Z,101181.53
2022-09-03T10:37:19.942Z,101181.51
2022-09-03T10:40:09.463Z,101172.71
2022-09-03T10:42:48.718Z,101177.98
2022-09-03T10:45:33.835Z,101175.48
2022-09-03T10:48:38.526Z,101178.99
2022-09-03T10:51:17.965Z,101171.11
2022-09-03T10:54:04.917Z,101166.30
2022-09-03T10:56:49.515Z,101166.07
2022-09-03T10:59:37.768Z,101161.18
2022-09-03T11:02:29.965Z,101159.54
2022-09-03T11:05:07.812Z,101164.42
2022-09-03T11:07:44.557Z,101159.19
2022-09-03T11:10:30.953Z,101161.49
2022-09-03T11:13:09.975Z,101149.27
2022-09-03T11:15:47.003Z,101145.70
2022-09-03T11:18:25.873Z,101138.05
2022-09-03T11:21:10.112Z,101138.59
2022-09-03T11:23:46.990Z,101138.73
2022-09-03T11:26:22.894Z,101130.07
2022-09-03T11:28:59.845Z,101138.60
2022-09-03T11:31:48.699Z,101130.53
2022-09-03T11:34:32.042Z,101128.44
2022-09-03T11:37:23.163Z,101132.54
2022-09-03T11:40:05.607Z,101128.41
2022-09-03T11:42:43.089Z,101121.85
2022-09-03T11:45:25.482Z,101117.71
2022-09-03T11:47:57.716Z,101121.96
2022-09-03T11:50:31.474Z,101113.83
2022-09-03T11:53:24.516Z,101110.86
2022-09-03T11:56:00.652Z,101108.66
2022-09-03T11:58:39.271Z,101109.02
2022-09-03T12:01:15.081Z,101104.04
2022-09-03T12:03:52.693Z,101103.95
2022-09-03T12:06:49.866Z,101100.61
2022-09-03T12:09:45.052Z,101094.88
2022-09-03T12:12:37.502Z,101090.98
2022-09-03T12:15:19.288Z,101086.15
2022-09-03T12:18:16.521Z,101083.54
2022-09-03T12:20:52.643Z,101082.37
2022-09-03T12:23:32.345Z,101079.05
2022-09-03T12:26:07.859Z,101075.52
2022-09-03T12:28:43.957Z,101073.46
2022-09-03T12:31:26.140Z,101068.42
2022-09-03T12:34:00.538Z,101056.23
2022-09-03T12:36:41.092Z,101060.19
2022-09-03T12:39:14.809Z,101055.57
2022-09-03T12:42:02.223Z,101064.20
2022-09-03T12:44:41.225Z,101061.23
2022-09-03T12:47:35.545Z,101061.68
2022-09-03T12:50:11.943Z,101062.62
2022-09-03T12:52:48.496Z,101057.79
2022-09-03T12:55:34.269Z,101054.14
2022-09-03T12:58:13.818Z,101049.31
2022-09-03T13:00:52.220Z,101045.44
2022-09-03T13:03:30.764Z,101048.15
2022-09-03T13:06:08.322Z,101041.08
2022-09-03T13:08:47.726Z,101042.00
2022-09-03T13:11:22.505Z,101040.23
2022-09-03T13:14:06.730Z,101039.01
2022-09-03T13:17:16.757Z,101041.06
2022-09-03T13:20:19.822Z,101042.19
2022-09-03T13:23:09.012Z,101038.79
2022-09-03T13:25:52.591Z,101039.83
2022-09-03T13:28:40.124Z,101044.41
2022-09-03T13:31:28.889Z,101040.27
2022-09-03T13:34:06.419Z,101042.88
2022-09-03T13:36:46.494Z,101044.04
2022-09-03T13:39:27.975Z,101036.88
2022-09-03T13:42:07.904Z,101044.41
2022-09-03T13:44:46.487Z,101036.15
2022-09-03T13:47:29.044Z,101037.80
2022-09-03T13:50:27.227Z,101033.81
2022-09-03T13:53:06.225Z,101031.30
2022-09-03T13:55:48.369Z,101036.19
2022-09-03T13:58:28.287Z,101032.16
2022-09-03T14:01:13.630Z,101035.48
2022-09-03T14:03:52.112Z,101029.84
2022-09-03T14:06:42.203Z,101032.20
2022-09-03T14:09:34.984Z,101039.09
2022-09-03T14:12:18.550Z,101036.78
2022-09-03T14:14:58.057Z,101032.75
2022-09-03T14:17:40.977Z,101033.38
2022-09-03T14:20:25.608Z,101031.13
2022-09-03T14:23:03.564Z,101034.99
2022-09-03T14:25:35.725Z,101033.25
2022-09-03T14:28:30.366Z,101037.05
2022-09-03T14:31:10.326Z,101037.59
2022-09-03T14:33:52.873Z,101039.73
2022-09-03T14:36:31.557Z,101037.91
2022-09-03T14:39:19.960Z,101038.55
2022-09-03T14:42:27.912Z,101037.42
2022-09-03T14:45:50.122Z,101035.68
2022-09-03T14:48:37.998Z,101033.86
2022-09-03T14:51:24.347Z,101030.69
2022-09-03T14:54:16.905Z,101026.67
2022-09-03T14:57:00.817Z,101026.65
2022-09-03T14:59:50.953Z,101027.99
2022-09-03T15:02:46.454Z,101021.19
2022-09-03T15:05:33.797Z,101019.84
2022-09-03T15:08:16.899Z,101018.50
2022-09-03T15:10:56.873Z,101012.38
2022-09-03T15:13:34.513Z,101009.54
2022-09-03T15:16:19.879Z,101008.73
2022-09-03T15:19:11.474Z,101011.30
2022-09-03T15:22:14.376Z,101004.64
2022-09-03T15:24:55.926Z,101002.20
2022-09-03T15:27:45.589Z,101006.64
2022-09-03T15:30:20.488Z,101001.10
2022-09-03T15:33:07.983Z,101006.68
2022-09-03T15:36:12.800Z,101007.51
2022-09-03T15:38:51.843Z,101017.89
2022-09-03T15:41:36.961Z,101020.02
2022-09-03T15:44:19.018Z,101019.48
2022-09-03T15:46:59.069Z,101020.14
2022-09-03T15:49:46.141Z,101015.25
2022-09-03T15:52:33.784Z,101015.52
2022-09-03T15:55:13.067Z,101012.59
2022-09-03T15:57:54.673Z,101019.46
2022-09-03T16:00:34.128Z,101021.59
2022-09-03T16:03:20.408Z,101020.65
2022-09-03T16:06:00.811Z,101017.96
2022-09-03T16:08:41.178Z,101019.30
2022-09-03T16:11:21.304Z,101019.69
2022-09-03T16:14:09.115Z,101021.27
2022-09-03T16:16:58.388Z,101022.77
2022-09-03T16:19:39.092Z,101022.38
2022-09-03T16:22:14.255Z,101019.15
2022-09-03T16:24:52.617Z,101021.59
2022-09-03T16:27:27.009Z,101020.71
2022-09-03T16:30:03.087Z,101012.97
2022-09-03T16:33:00.888Z,101016.84
2022-09-03T16:35:44.300Z,101019.21
2022-09-03T16:38:27.896Z,101019.14
2022-09-03T16:41:10.568Z,101017.00
2022-09-03T16:43:51.862Z,101018.02
2022-09-03T16:46:35.882Z,101013.45
2022-09-03T16:49:23.409Z,101017.07
2022-09-03T16:52:03.430Z,101016.03
2022-09-03T16:54:55.738Z,101010.52
2022-09-03T16:57:37.633Z,101011.27
2022-09-03T17:00:18.981Z,101007.60
2022-09-03T17:03:26.107Z,101009.64
2022-09-03T17:06:17.316Z,101010.38
2022-09-03T17:08:51.893Z,101008.15
2022-09-03T17:11:52.313Z,101006.23
2022-09-03T17:15:00.770Z,101007.54
2022-09-03T17:17:51.167Z,101007.56
2022-09-03T17:20:30.020Z,101005.33
2022-09-03T17:23:12.824Z,101007.25
2022-09-03T17:25:56.596Z,101008.53
2022-09-03T17:28:43.547Z,101006.02
2022-09-03T17:31:25.494Z,101006.45
2022-09-03T17:34:09.258Z,101008.59
2022-09-03T17:36:51.312Z,101008.06
2022-09-03T17:39:46.545Z,101015.00
2022-09-03T17:42:22.021Z,101021.72
2022-09-03T17:45:07.459Z,101023.32
2022-09-03T17:48:05.671Z,101027.29
2022-09-03T17:50:52.050Z,101024.73
2022-09-03T17:53:29.097Z,101026.70
2022-09-03T17:56:05.671Z,101027.44
2022-09-03T17:58:42.203Z,101023.98
2022-09-03T18:01:23.174Z,101025.50
2022-09-03T18:03:57.524Z,101028.00
2022-09-03T18:06:36.143Z,101032.34
2022-09-03T18:09:13.832Z,101037.77
2022-09-03T18:11:51.873Z,101035.88
2022-09-03T18:14:29.842Z,101040.77
2022-09-03T18:17:08.228Z,101038.66
2022-09-03T18:20:03.009Z,101042.67
2022-09-03T18:22:58.872Z,101046.90
2022-09-03T18:25:52.572Z,101047.08
2022-09-03T18:28:50.619Z,101049.02
2022-09-03T18:31:40.246Z,101043.30
2022-09-03T18:34:30.679Z,101045.81
2022-09-03T18:37:20.544Z,101047.94
2022-09-03T18:40:12.496Z,101055.56
2022-09-03T18:43:15.468Z,101055.27
2022-09-03T18:47:00.300Z,101058.04
2022-09-03T18:49:27.089Z,101060.16
2022-09-03T18:52:22.675Z,101065.45
2022-09-03T18:55:23.795Z,101068.73
2022-09-03T18:58:19.458Z,101066.49
2022-09-03T19:01:15.860Z,101067.85
2022-09-03T19:04:17.141Z,101068.27
2022-09-03T19:07:15.368Z,101073.28
2022-09-03T19:10:21.562Z,101081.07
2022-09-03T19:13:27.929Z,101083.66
2022-09-03T19:16:24.339Z,101086.79
2022-09-03T19:19:33.301Z,101087.34
2022-09-03T19:22:28.426Z,101081.82
2022-09-03T19:25:23.922Z,101083.31
2022-09-03T19:28:23.838Z,101084.45
2022-09-03T19:31:25.499Z,101084.13
2022-09-03T19:34:22.555Z,101086.25
2022-09-03T19:37:19.930Z,101089.11
2022-09-03T19:40:25.877Z,101088.66
2022-09-03T19:43:25.711Z,101090.36
2022-09-03T19:46:28.911Z,101093.29
2022-09-03T19:49:29.909Z,101091.52
2022-09-03T19:52:22.923Z,101100.55
2022-09-03T19:55:16.670Z,101096.21
2022-09-03T19:58:32.263Z,101107.38
2022-09-03T20:01:21.355Z,101107.45
2022-09-03T20:04:11.848Z,101111.36
2022-09-03T20:07:01.009Z,101112.90
2022-09-03T20:09:57.740Z,101113.22
2022-09-03T20:12:34.503Z,101114.37
2022-09-03T20:15:10.509Z,101116.34
2022-09-03T20:17:53.650Z,101122.23
2022-09-03T20:20:34.737Z,101119.30
2022-09-03T20:23:12.935Z,101119.15
2022-09-03T20:26:01.376Z,101123.77
2022-09-03T20:28:57.496Z,101128.05
2022-09-03T20:31:40.539Z,101130.73
2022-09-03T20:34:24.477Z,101131.55
2022-09-03T20:37:09.823Z,101135.36
2022-09-03T20:39:54.575Z,101135.84
2022-09-03T20:42:45.521Z,101139.27
2022-09-03T20:45:23.924Z,101140.40
2022-09-03T20:48:11.061Z,101142.45
2022-09-03T20:50:56.579Z,101143.34
2022-09-03T20:53:44.672Z,101145.44
2022-09-03T20:56:24.539Z,101145.88
2022-09-03T20:59:04.331Z,101144.32
2022-09-03T21:01:47.042Z,101147.85
2022-09-03T21:04:34.511Z,101152.98
2022-09-03T21:07:17.332Z,101151.92
2022-09-03T21:09:57.016Z,101153.46
2022-09-03T21:12:39.660Z,101156.21
2022-09-03T21:15:20.762Z,101155.33
2022-09-03T21:18:04.122Z,101160.73
2022-09-03T21:20:46.167Z,101157.84
2022-09-03T21:23:23.551Z,101168.47
2022-09-03T21:26:03.669Z,101168.92
2022-09-03T21:28:40.487Z,101172.18
2022-09-03T21:31:20.319Z,101174.84
2022-09-03T21:33:59.736Z,101176.54
2022-09-03T21:36:36.048Z,101179.00
2022-09-03T21:39:14.848Z,101181.41
2022-09-03T21:41:56.336Z,101181.45
2022-09-03T21:44:43.825Z,101185.34
2022-09-03T21:47:18.673Z,101186.00
2022-09-03T21:50:01.535Z,101185.17
2022-09-03T21:52:41.380Z,101193.16
2022-09-03T21:55:23.320Z,101195.14
2022-09-03T21:58:00.613Z,101195.31
2022-09-03T22:00:32.838Z,101199.11
2022-09-03T22:03:07.268Z,101200.51
2022-09-03T22:05:51.962Z,101197.80
2022-09-03T22:08:31.976Z,101202.04
2022-09-03T22:11:09.251Z,101204.66
2022-09-03T22:13:49.569Z,101202.38
2022-09-03T22:16:30.322Z,101207.29
2022-09-03T22:19:02.249Z,101207.87
2022-09-03T22:21:38.194Z,101207.82
2022-09-03T22:24:19.241Z,101202.23
2022-09-03T22:26:52.406Z,101204.83
2022-09-03T22:29:36.858Z,101205.38
2022-09-03T22:32:20.811Z,101203.88
2022-09-03T22:35:18.762Z,101206.39
2022-09-03T22:38:03.119Z,101203.62
2022-09-03T22:40:42.195Z,101206.20
2022-09-03T22:43:27.100Z,101203.01
2022-09-03T22:46:08.416Z,101205.94
2022-09-03T22:48:54.265Z,101199.39
2022-09-03T22:51:29.086Z,101201.41
2022-09-03T22:54:18.429Z,101203.36
2022-09-03T22:56:51.328Z,101206.09
2022-09-03T22:59:34.428Z,101207.73
2022-09-03T23:02:15.962Z,101210.17
2022-09-03T23:04:57.066Z,101209.77
2022-09-03T23:07:35.393Z,101209.42
2022-09-03T23:10:12.570Z,101210.11
2022-09-03T23:13:04.278Z,101207.61
2022-09-03T23:15:39.219Z,101211.15
2022-09-03T23:18:15.518Z,101208.39
2022-09-03T23:20:56.086Z,101205.96
2022-09-03T23:23:33.444Z,101204.66
2022-09-03T23:26:13.729Z,101202.30
2022-09-03T23:28:49.999Z,101205.25
2022-09-03T23:31:25.379Z,101205.35
2022-09-03T23:33:58.713Z,101208.00
2022-09-03T23:37:10.263Z,101201.23
2022-09-03T23:39:54.942Z,101203.21
2022-09-03T23:42:45.877Z,101207.18
2022-09-03T23:45:27.995Z,101203.13
2022-09-03T23:48:11.146Z,101200.92
2022-09-03T23:50:51.192Z,101207.39
2022-09-03T23:53:32.982Z,101204.97
2022-09-03T23:56:18.579Z,101202.27
2022-09-03T23:59:04.650Z,101206.48
